createdAt,value
2023-05-14T00:00:00.947Z,68.99
2023-05-14T00:00:22.242Z,68.99
2023-05-14T00:00:43.616Z,68.96
2023-05-14T00:01:04.726Z,68.99
2023-05-14T00:01:25.789Z,69.05
2023-05-14T00:01:46.865Z,69.06
2023-05-14T00:02:07.948Z,69.12
2023-05-14T00:02:29.122Z,69.16
2023-05-14T00:02:50.423Z,69.22
2023-05-14T00:03:11.941Z,69.26
2023-05-14T00:03:33.200Z,69.25
2023-05-14T00:03:54.330Z,69.22
2023-05-14T00:04:15.438Z,69.22
2023-05-14T00:04:36.637Z,69.15
2023-05-14T00:04:57.696Z,69.10
2023-05-14T00:05:18.756Z,69.09
2023-05-14T00:05:39.812Z,69.10
2023-05-14T00:06:01.090Z,69.15
2023-05-14T00:06:22.186Z,69.21
2023-05-14T00:06:43.237Z,69.30
2023-05-14T00:07:04.304Z,69.42
2023-05-14T00:07:25.366Z,69.42
2023-05-14T00:07:46.434Z,69.48
2023-05-14T00:08:07.494Z,69.56
2023-05-14T00:08:28.550Z,69.61
2023-05-14T00:08:49.607Z,69.55
2023-05-14T00:09:10.697Z,69.58
2023-05-14T00:09:31.760Z,69.55
2023-05-14T00:09:52.841Z,69.59
2023-05-14T00:10:13.873Z,69.59
2023-05-14T00:10:34.934Z,69.59
2023-05-14T00:10:55.991Z,69.63
2023-05-14T00:11:17.764Z,69.68
2023-05-14T00:11:38.849Z,69.64
2023-05-14T00:11:59.922Z,69.71
2023-05-14T00:12:20.994Z,69.71
2023-05-14T00:12:42.056Z,69.66
2023-05-14T00:13:03.114Z,69.68
2023-05-14T00:13:24.193Z,69.61
2023-05-14T00:13:45.223Z,69.61
2023-05-14T00:14:06.285Z,69.60
2023-05-14T00:14:27.342Z,69.65
2023-05-14T00:14:48.403Z,69.62
2023-05-14T00:15:09.498Z,69.75
2023-05-14T00:15:32.859Z,69.80
2023-05-14T00:15:55.208Z,69.86
2023-05-14T00:16:16.262Z,69.87
2023-05-14T00:16:37.501Z,69.86
2023-05-14T00:16:58.870Z,69.81
2023-05-14T00:17:19.963Z,69.75
2023-05-14T00:17:41.047Z,69.79
2023-05-14T00:18:02.126Z,69.80
2023-05-14T00:18:23.217Z,69.86
2023-05-14T00:18:44.295Z,69.84
2023-05-14T00:19:05.391Z,69.88
2023-05-14T00:19:26.420Z,69.86
2023-05-14T00:19:47.537Z,69.88
2023-05-14T00:20:08.575Z,69.96
2023-05-14T00:20:29.642Z,69.97
2023-05-14T00:20:50.746Z,70.01
2023-05-14T00:21:11.795Z,69.96
2023-05-14T00:21:32.900Z,69.99
2023-05-14T00:21:53.953Z,70.07
2023-05-14T00:22:15.052Z,70.06
2023-05-14T00:22:36.108Z,70.11
2023-05-14T00:22:57.175Z,70.20
2023-05-14T00:23:18.225Z,70.29
2023-05-14T00:23:39.292Z,70.32
2023-05-14T00:24:00.338Z,70.28
2023-05-14T00:24:21.405Z,70.30
2023-05-14T00:24:42.460Z,70.30
2023-05-14T00:25:03.512Z,70.23
2023-05-14T00:25:24.578Z,70.17
2023-05-14T00:25:45.626Z,70.17
2023-05-14T00:26:06.678Z,70.16
2023-05-14T00:26:27.743Z,70.18
2023-05-14T00:26:48.806Z,70.18
2023-05-14T00:27:10.091Z,70.19
2023-05-14T00:27:31.176Z,70.17
2023-05-14T00:27:52.243Z,70.20
2023-05-14T00:28:13.298Z,70.13
2023-05-14T00:28:34.401Z,70.09
2023-05-14T00:28:55.444Z,70.09
2023-05-14T00:29:16.523Z,70.11
2023-05-14T00:29:37.570Z,70.16
2023-05-14T00:29:58.640Z,70.17
2023-05-14T00:30:19.728Z,70.16
2023-05-14T00:30:40.766Z,70.11
2023-05-14T00:31:01.853Z,70.05
2023-05-14T00:31:22.925Z,70.08
2023-05-14T00:31:44.028Z,70.10
2023-05-14T00:32:05.201Z,70.16
2023-05-14T00:32:26.311Z,70.16
2023-05-14T00:32:47.595Z,70.24
2023-05-14T00:33:08.700Z,70.28
2023-05-14T00:33:29.719Z,70.25
2023-05-14T00:33:50.789Z,70.26
2023-05-14T00:34:11.846Z,70.34
2023-05-14T00:34:32.902Z,70.34
2023-05-14T00:34:53.959Z,70.39
2023-05-14T00:35:15.032Z,70.52
2023-05-14T00:35:36.095Z,70.45
2023-05-14T00:35:57.145Z,70.52
2023-05-14T00:36:18.220Z,70.50
2023-05-14T00:36:39.262Z,70.47
2023-05-14T00:37:00.314Z,70.48
2023-05-14T00:37:21.382Z,70.49
2023-05-14T00:37:42.475Z,70.50
2023-05-14T00:38:03.773Z,70.50
2023-05-14T00:38:24.804Z,70.55
2023-05-14T00:38:45.861Z,70.51
2023-05-14T00:39:06.918Z,70.54
2023-05-14T00:39:28.004Z,70.52
2023-05-14T00:39:49.058Z,70.47
2023-05-14T00:40:10.092Z,70.41
2023-05-14T00:40:31.187Z,70.35
2023-05-14T00:40:52.218Z,70.31
2023-05-14T00:41:13.265Z,70.30
2023-05-14T00:41:34.333Z,70.34
2023-05-14T00:41:55.388Z,70.25
2023-05-14T00:42:16.436Z,70.21
2023-05-14T00:42:37.506Z,70.19
2023-05-14T00:42:58.789Z,70.20
2023-05-14T00:43:19.873Z,70.26
2023-05-14T00:43:40.930Z,70.32
2023-05-14T00:44:01.988Z,70.19
2023-05-14T00:44:23.046Z,70.22
2023-05-14T00:44:44.110Z,70.16
2023-05-14T00:45:05.161Z,70.14
2023-05-14T00:45:26.237Z,70.18
2023-05-14T00:45:47.274Z,70.31
2023-05-14T00:46:08.381Z,70.31
2023-05-14T00:46:29.482Z,70.37
2023-05-14T00:46:50.556Z,70.30
2023-05-14T00:47:11.590Z,70.30
2023-05-14T00:47:32.701Z,70.24
2023-05-14T00:47:53.780Z,70.10
2023-05-14T00:48:14.881Z,70.15
2023-05-14T00:48:35.979Z,70.21
2023-05-14T00:48:57.028Z,70.23
2023-05-14T00:49:18.093Z,70.31
2023-05-14T00:49:39.135Z,70.34
2023-05-14T00:50:00.188Z,70.37
2023-05-14T00:50:21.338Z,70.45
2023-05-14T00:50:42.430Z,70.47
2023-05-14T00:51:03.535Z,70.47
2023-05-14T00:51:24.592Z,70.48
2023-05-14T00:51:45.647Z,70.47
2023-05-14T00:52:06.704Z,70.49
2023-05-14T00:52:27.768Z,70.56
2023-05-14T00:52:48.831Z,70.53
2023-05-14T00:53:09.870Z,70.55
2023-05-14T00:53:30.965Z,70.57
2023-05-14T00:53:52.061Z,70.53
2023-05-14T00:54:13.120Z,70.55
2023-05-14T00:54:34.182Z,70.57
2023-05-14T00:54:55.248Z,70.57
2023-05-14T00:55:16.343Z,70.58
2023-05-14T00:55:37.385Z,70.61
2023-05-14T00:55:58.498Z,70.64
2023-05-14T00:56:19.517Z,70.61
2023-05-14T00:56:40.583Z,70.60
2023-05-14T00:57:01.645Z,70.62
2023-05-14T00:57:22.702Z,70.59
2023-05-14T00:57:43.763Z,70.61
2023-05-14T00:58:04.816Z,70.65
2023-05-14T00:58:25.871Z,70.63
2023-05-14T00:58:46.967Z,70.61
2023-05-14T00:59:08.072Z,70.63
2023-05-14T00:59:29.112Z,70.61
2023-05-14T00:59:50.165Z,70.59
2023-05-14T01:00:11.325Z,70.57
2023-05-14T01:00:32.377Z,70.63
2023-05-14T01:00:53.441Z,70.61
2023-05-14T01:01:14.528Z,70.65
2023-05-14T01:01:35.573Z,70.67
2023-05-14T01:01:56.625Z,70.63
2023-05-14T01:02:17.693Z,70.47
2023-05-14T01:02:38.877Z,70.44
2023-05-14T01:03:00.047Z,70.44
2023-05-14T01:03:21.265Z,70.46
2023-05-14T01:03:42.408Z,70.53
2023-05-14T01:04:03.791Z,70.53
2023-05-14T01:04:25.068Z,70.57
2023-05-14T01:04:46.137Z,70.55
2023-05-14T01:05:07.192Z,70.63
2023-05-14T01:05:28.246Z,70.60
2023-05-14T01:05:49.300Z,70.60
2023-05-14T01:06:10.378Z,70.62
2023-05-14T01:06:31.439Z,70.60
2023-05-14T01:06:52.487Z,70.69
2023-05-14T01:07:13.556Z,70.67
2023-05-14T01:07:34.627Z,70.64
2023-05-14T01:07:55.668Z,70.55
2023-05-14T01:08:16.738Z,70.48
2023-05-14T01:08:37.796Z,70.46
2023-05-14T01:08:58.857Z,70.46
2023-05-14T01:09:19.939Z,70.46
2023-05-14T01:09:41.029Z,70.50
2023-05-14T01:10:02.089Z,70.56
2023-05-14T01:10:23.279Z,70.55
2023-05-14T01:10:44.431Z,70.59
2023-05-14T01:11:05.509Z,70.59
2023-05-14T01:11:26.555Z,70.53
2023-05-14T01:11:47.601Z,70.56
2023-05-14T01:12:08.669Z,70.63
2023-05-14T01:12:29.719Z,70.65
2023-05-14T01:12:50.773Z,70.62
2023-05-14T01:13:11.844Z,70.61
2023-05-14T01:13:32.892Z,70.65
2023-05-14T01:13:53.964Z,70.64
2023-05-14T01:14:15.012Z,70.62
2023-05-14T01:14:36.120Z,70.62
2023-05-14T01:14:57.388Z,70.64
2023-05-14T01:15:18.467Z,70.69
2023-05-14T01:15:39.535Z,70.75
2023-05-14T01:16:00.625Z,70.75
2023-05-14T01:16:21.673Z,70.76
2023-05-14T01:16:42.732Z,70.73
2023-05-14T01:17:03.788Z,70.73
2023-05-14T01:17:24.844Z,70.76
2023-05-14T01:17:45.985Z,70.76
2023-05-14T01:18:07.037Z,70.79
2023-05-14T01:18:28.128Z,70.79
2023-05-14T01:18:49.208Z,70.79
2023-05-14T01:19:10.413Z,70.76
2023-05-14T01:19:31.482Z,70.74
2023-05-14T01:19:52.574Z,70.66
2023-05-14T01:20:13.681Z,70.64
2023-05-14T01:20:34.732Z,70.62
2023-05-14T01:20:55.797Z,70.64
2023-05-14T01:21:16.862Z,70.58
2023-05-14T01:21:37.939Z,70.62
2023-05-14T01:21:59.002Z,70.66
2023-05-14T01:22:20.072Z,70.68
2023-05-14T01:22:41.144Z,70.70
2023-05-14T01:23:02.200Z,70.62
2023-05-14T01:23:23.258Z,70.69
2023-05-14T01:23:44.328Z,70.64
2023-05-14T01:24:05.371Z,70.64
2023-05-14T01:24:26.430Z,70.68
2023-05-14T01:24:47.488Z,70.60
2023-05-14T01:25:08.588Z,70.67
2023-05-14T01:25:29.863Z,70.64
2023-05-14T01:25:50.920Z,70.63
2023-05-14T01:26:11.979Z,70.62
2023-05-14T01:26:33.058Z,70.53
2023-05-14T01:26:54.093Z,70.64
2023-05-14T01:27:15.155Z,70.67
2023-05-14T01:27:36.219Z,70.61
2023-05-14T01:27:57.270Z,70.70
2023-05-14T01:28:18.321Z,70.62
2023-05-14T01:28:39.375Z,70.62
2023-05-14T01:29:00.435Z,70.48
2023-05-14T01:29:21.495Z,70.54
2023-05-14T01:29:42.570Z,70.49
2023-05-14T01:30:03.643Z,70.51
2023-05-14T01:30:25.253Z,70.54
2023-05-14T01:30:46.774Z,70.56
2023-05-14T01:31:07.828Z,70.57
2023-05-14T01:31:28.910Z,70.56
2023-05-14T01:31:49.966Z,70.53
2023-05-14T01:32:11.040Z,70.54
2023-05-14T01:32:32.138Z,70.56
2023-05-14T01:32:53.180Z,70.61
2023-05-14T01:33:14.232Z,70.59
2023-05-14T01:33:35.299Z,70.52
2023-05-14T01:33:56.364Z,70.53
2023-05-14T01:34:17.416Z,70.49
2023-05-14T01:34:38.484Z,70.53
2023-05-14T01:34:59.532Z,70.46
2023-05-14T01:35:20.599Z,70.50
2023-05-14T01:35:41.702Z,70.46
2023-05-14T01:36:02.791Z,70.42
2023-05-14T01:36:23.852Z,70.38
2023-05-14T01:36:44.909Z,70.31
2023-05-14T01:37:05.970Z,70.36
2023-05-14T01:37:27.034Z,70.31
2023-05-14T01:37:48.084Z,70.28
2023-05-14T01:38:09.143Z,70.26
2023-05-14T01:38:30.201Z,70.33
2023-05-14T01:38:51.254Z,70.40
2023-05-14T01:39:12.314Z,70.50
2023-05-14T01:39:33.386Z,70.58
2023-05-14T01:39:54.443Z,70.65
2023-05-14T01:40:15.500Z,70.73
2023-05-14T01:40:36.555Z,70.75
2023-05-14T01:40:57.660Z,70.74
2023-05-14T01:41:18.918Z,70.79
2023-05-14T01:41:39.966Z,70.76
2023-05-14T01:42:01.030Z,70.91
2023-05-14T01:42:22.082Z,70.89
2023-05-14T01:42:43.194Z,70.85
2023-05-14T01:43:04.283Z,70.78
2023-05-14T01:43:25.395Z,70.76
2023-05-14T01:43:46.419Z,70.71
2023-05-14T01:44:07.481Z,70.73
2023-05-14T01:44:28.531Z,70.73
2023-05-14T01:44:49.599Z,70.69
2023-05-14T01:45:10.662Z,70.73
2023-05-14T01:45:31.733Z,70.82
2023-05-14T01:45:52.849Z,70.80
2023-05-14T01:46:13.972Z,70.79
2023-05-14T01:46:35.281Z,70.82
2023-05-14T01:46:56.332Z,70.87
2023-05-14T01:47:17.389Z,70.78
2023-05-14T01:47:38.452Z,70.86
2023-05-14T01:47:59.572Z,70.93
2023-05-14T01:48:20.652Z,70.94
2023-05-14T01:48:41.719Z,70.92
2023-05-14T01:49:02.771Z,70.95
2023-05-14T01:49:23.857Z,70.95
2023-05-14T01:49:44.912Z,70.93
2023-05-14T01:50:05.977Z,70.95
2023-05-14T01:50:27.124Z,71.02
2023-05-14T01:50:48.199Z,71.02
2023-05-14T01:51:09.247Z,71.02
2023-05-14T01:51:30.343Z,70.95
2023-05-14T01:51:51.433Z,70.97
2023-05-14T01:52:12.494Z,70.95
2023-05-14T01:52:33.548Z,70.90
2023-05-14T01:52:54.605Z,70.81
2023-05-14T01:53:15.672Z,70.74
2023-05-14T01:53:36.733Z,70.77
2023-05-14T01:53:57.803Z,70.80
2023-05-14T01:54:18.864Z,70.80
2023-05-14T01:54:39.932Z,70.80
2023-05-14T01:55:00.987Z,70.89
2023-05-14T01:55:22.062Z,70.90
2023-05-14T01:55:43.113Z,70.88
2023-05-14T01:56:04.167Z,70.95
2023-05-14T01:56:25.234Z,70.97
2023-05-14T01:56:46.342Z,71.00
2023-05-14T01:57:07.609Z,70.94
2023-05-14T01:57:28.663Z,70.89
2023-05-14T01:57:49.707Z,70.90
2023-05-14T01:58:10.770Z,70.89
2023-05-14T01:58:31.826Z,70.97
2023-05-14T01:58:52.897Z,70.95
2023-05-14T01:59:13.938Z,70.95
2023-05-14T01:59:35.020Z,70.92
2023-05-14T01:59:56.057Z,70.97
2023-05-14T02:00:17.129Z,70.98
2023-05-14T02:00:38.169Z,70.98
2023-05-14T02:00:59.285Z,71.02
2023-05-14T02:01:20.369Z,71.04
2023-05-14T02:01:41.475Z,71.13
2023-05-14T02:02:02.750Z,71.12
2023-05-14T02:02:24.060Z,71.19
2023-05-14T02:02:45.133Z,71.24
2023-05-14T02:03:06.236Z,71.21
2023-05-14T02:03:27.351Z,71.27
2023-05-14T02:03:48.443Z,71.22
2023-05-14T02:04:09.578Z,71.14
2023-05-14T02:04:30.624Z,71.09
2023-05-14T02:04:51.689Z,71.04
2023-05-14T02:05:12.747Z,71.03
2023-05-14T02:05:33.811Z,71.03
2023-05-14T02:05:54.863Z,71.03
2023-05-14T02:06:15.908Z,70.96
2023-05-14T02:06:36.966Z,70.94
2023-05-14T02:06:58.031Z,70.94
2023-05-14T02:07:19.306Z,70.90
2023-05-14T02:07:40.410Z,70.86
2023-05-14T02:08:01.446Z,70.84
2023-05-14T02:08:22.506Z,70.95
2023-05-14T02:08:43.572Z,71.01
2023-05-14T02:09:04.626Z,71.03
2023-05-14T02:09:25.686Z,71.05
2023-05-14T02:09:46.738Z,71.11
2023-05-14T02:10:07.805Z,71.10
2023-05-14T02:10:28.870Z,71.16
2023-05-14T02:10:49.921Z,71.13
2023-05-14T02:11:11.003Z,71.14
2023-05-14T02:11:32.042Z,71.12
2023-05-14T02:11:53.104Z,71.08
2023-05-14T02:12:14.158Z,71.09
2023-05-14T02:12:35.440Z,71.13
2023-05-14T02:12:56.696Z,71.14
2023-05-14T02:13:17.768Z,71.13
2023-05-14T02:13:38.823Z,71.11
2023-05-14T02:13:59.874Z,71.10
2023-05-14T02:14:20.940Z,71.10
2023-05-14T02:14:42.000Z,71.09
2023-05-14T02:15:03.052Z,71.09
2023-05-14T02:15:24.098Z,71.08
2023-05-14T02:15:45.208Z,71.21
2023-05-14T02:16:06.328Z,71.19
2023-05-14T02:16:27.456Z,71.18
2023-05-14T02:16:48.520Z,71.19
2023-05-14T02:17:09.569Z,71.24
2023-05-14T02:17:30.677Z,71.18
2023-05-14T02:17:51.936Z,71.14
2023-05-14T02:18:13.469Z,71.16
2023-05-14T02:18:34.564Z,71.17
2023-05-14T02:18:55.649Z,71.23
2023-05-14T02:19:16.754Z,71.25
2023-05-14T02:19:37.863Z,71.27
2023-05-14T02:19:58.912Z,71.28
2023-05-14T02:20:19.972Z,71.26
2023-05-14T02:20:41.026Z,71.29
2023-05-14T02:21:02.091Z,71.29
2023-05-14T02:21:23.145Z,71.29
2023-05-14T02:21:44.204Z,71.32
2023-05-14T02:22:05.261Z,71.32
2023-05-14T02:22:26.319Z,71.34
2023-05-14T02:22:47.375Z,71.28
2023-05-14T02:23:08.467Z,71.29
2023-05-14T02:23:40.327Z,71.26
2023-05-14T02:23:56.534Z,71.30
2023-05-14T02:24:17.603Z,71.27
2023-05-14T02:24:38.653Z,71.28
2023-05-14T02:24:59.727Z,71.31
2023-05-14T02:25:20.785Z,71.25
2023-05-14T02:25:42.013Z,71.28
2023-05-14T02:26:03.074Z,71.33
2023-05-14T02:26:24.146Z,71.34
2023-05-14T02:26:45.207Z,71.32
2023-05-14T02:27:06.239Z,71.30
2023-05-14T02:27:27.297Z,71.35
2023-05-14T02:27:48.355Z,71.35
2023-05-14T02:28:09.633Z,71.35
2023-05-14T02:28:30.722Z,71.35
2023-05-14T02:28:51.795Z,71.36
2023-05-14T02:29:12.847Z,71.40
2023-05-14T02:29:33.888Z,71.34
2023-05-14T02:29:54.950Z,71.37
2023-05-14T02:30:16.008Z,71.39
2023-05-14T02:30:37.065Z,71.32
2023-05-14T02:30:58.152Z,71.36
2023-05-14T02:31:19.282Z,71.29
2023-05-14T02:31:40.406Z,71.25
2023-05-14T02:32:01.474Z,71.30
2023-05-14T02:32:22.647Z,71.24
2023-05-14T02:32:43.802Z,71.28
2023-05-14T02:33:04.964Z,71.35
2023-05-14T02:33:26.158Z,71.33
2023-05-14T02:33:47.231Z,71.33
2023-05-14T02:34:08.291Z,71.34
2023-05-14T02:34:29.337Z,71.30
2023-05-14T02:34:50.403Z,71.26
2023-05-14T02:35:11.461Z,71.26
2023-05-14T02:35:32.513Z,71.26
2023-05-14T02:35:53.567Z,71.30
2023-05-14T02:36:14.633Z,71.29
2023-05-14T02:36:35.692Z,71.23
2023-05-14T02:36:56.741Z,71.21
2023-05-14T02:37:17.818Z,71.18
2023-05-14T02:37:38.856Z,71.16
2023-05-14T02:37:59.921Z,71.19
2023-05-14T02:38:20.974Z,71.18
2023-05-14T02:38:42.067Z,71.18
2023-05-14T02:39:03.125Z,71.18
2023-05-14T02:39:24.185Z,71.18
2023-05-14T02:39:45.259Z,71.24
2023-05-14T02:40:06.330Z,71.26
2023-05-14T02:40:27.371Z,71.20
2023-05-14T02:40:48.421Z,71.21
2023-05-14T02:41:09.490Z,71.24
2023-05-14T02:41:30.540Z,71.24
2023-05-14T02:41:51.610Z,71.25
2023-05-14T02:42:12.654Z,71.25
2023-05-14T02:42:33.716Z,71.31
2023-05-14T02:42:54.766Z,71.35
2023-05-14T02:43:15.837Z,71.35
2023-05-14T02:43:36.885Z,71.33
2023-05-14T02:43:58.160Z,71.29
2023-05-14T02:44:19.259Z,71.30
2023-05-14T02:44:40.318Z,71.29
2023-05-14T02:45:01.374Z,71.26
2023-05-14T02:45:22.432Z,71.26
2023-05-14T02:45:43.499Z,71.25
2023-05-14T02:46:04.542Z,71.25
2023-05-14T02:46:25.643Z,71.24
2023-05-14T02:46:46.773Z,71.25
2023-05-14T02:47:07.885Z,71.26
2023-05-14T02:47:28.939Z,71.25
2023-05-14T02:47:49.984Z,71.18
2023-05-14T02:48:11.081Z,71.13
2023-05-14T02:48:32.157Z,71.26
2023-05-14T02:48:53.225Z,71.15
2023-05-14T02:49:14.333Z,71.23
2023-05-14T02:49:35.431Z,71.15
2023-05-14T02:49:56.487Z,71.23
2023-05-14T02:50:17.558Z,71.28
2023-05-14T02:50:38.613Z,71.26
2023-05-14T02:50:59.662Z,71.25
2023-05-14T02:51:20.708Z,71.30
2023-05-14T02:51:41.778Z,71.27
2023-05-14T02:52:02.827Z,71.27
2023-05-14T02:52:23.892Z,71.26
2023-05-14T02:52:44.951Z,71.26
2023-05-14T02:53:06.022Z,71.25
2023-05-14T02:53:27.068Z,71.17
2023-05-14T02:53:48.124Z,71.13
2023-05-14T02:54:09.171Z,71.07
2023-05-14T02:54:30.273Z,71.09
2023-05-14T02:54:51.356Z,71.07
2023-05-14T02:55:12.416Z,71.00
2023-05-14T02:55:33.471Z,71.00
2023-05-14T02:55:54.521Z,71.10
2023-05-14T02:56:15.574Z,71.16
2023-05-14T02:56:36.648Z,71.28
2023-05-14T02:56:57.686Z,71.25
2023-05-14T02:57:18.748Z,71.24
2023-05-14T02:57:39.801Z,71.26
2023-05-14T02:58:00.871Z,71.29
2023-05-14T02:58:25.366Z,71.38
2023-05-14T02:58:48.903Z,71.45
2023-05-14T02:59:09.972Z,71.46
2023-05-14T02:59:31.540Z,71.48
2023-05-14T02:59:53.087Z,71.45
2023-05-14T03:00:14.397Z,71.42
2023-05-14T03:00:35.828Z,71.41
2023-05-14T03:00:57.251Z,71.52
2023-05-14T03:01:18.935Z,71.51
2023-05-14T03:01:40.431Z,71.48
2023-05-14T03:02:02.055Z,71.45
2023-05-14T03:02:23.789Z,71.42
2023-05-14T03:02:45.257Z,71.47
2023-05-14T03:03:06.892Z,71.55
2023-05-14T03:03:28.514Z,71.59
2023-05-14T03:03:50.142Z,71.62
2023-05-14T03:04:11.347Z,71.59
2023-05-14T03:04:32.421Z,71.66
2023-05-14T03:04:53.510Z,71.62
2023-05-14T03:05:14.571Z,71.62
2023-05-14T03:05:35.634Z,71.61
2023-05-14T03:05:56.707Z,71.71
2023-05-14T03:06:17.766Z,71.75
2023-05-14T03:06:38.804Z,71.66
2023-05-14T03:06:59.861Z,71.63
2023-05-14T03:07:20.919Z,71.62
2023-05-14T03:07:41.987Z,71.62
2023-05-14T03:08:03.030Z,71.59
2023-05-14T03:08:24.085Z,71.59
2023-05-14T03:08:45.145Z,71.54
2023-05-14T03:09:06.239Z,71.54
2023-05-14T03:09:27.274Z,71.50
2023-05-14T03:09:48.531Z,71.56
2023-05-14T03:10:09.599Z,71.60
2023-05-14T03:10:30.653Z,71.62
2023-05-14T03:10:51.715Z,71.65
2023-05-14T03:11:12.774Z,71.62
2023-05-14T03:11:33.833Z,71.69
2023-05-14T03:11:54.888Z,71.75
2023-05-14T03:12:15.944Z,71.82
2023-05-14T03:12:36.999Z,71.83
2023-05-14T03:12:58.065Z,71.87
2023-05-14T03:13:19.125Z,71.82
2023-05-14T03:13:40.176Z,71.81
2023-05-14T03:14:01.239Z,71.81
2023-05-14T03:14:22.304Z,71.89
2023-05-14T03:14:43.401Z,71.92
2023-05-14T03:15:04.475Z,71.96
2023-05-14T03:15:25.565Z,72.00
2023-05-14T03:15:46.618Z,72.08
2023-05-14T03:16:07.695Z,72.14
2023-05-14T03:16:28.773Z,72.12
2023-05-14T03:16:49.891Z,72.11
2023-05-14T03:17:11.051Z,72.07
2023-05-14T03:17:32.240Z,72.09
2023-05-14T03:17:53.341Z,72.06
2023-05-14T03:18:14.424Z,72.08
2023-05-14T03:18:35.509Z,72.14
2023-05-14T03:18:56.561Z,72.22
2023-05-14T03:19:17.650Z,72.24
2023-05-14T03:19:38.709Z,72.19
2023-05-14T03:19:59.774Z,72.11
2023-05-14T03:20:21.008Z,72.12
2023-05-14T03:20:42.093Z,72.12
2023-05-14T03:21:03.155Z,72.11
2023-05-14T03:21:24.220Z,72.04
2023-05-14T03:21:45.273Z,72.09
2023-05-14T03:22:06.331Z,72.06
2023-05-14T03:22:27.397Z,72.10
2023-05-14T03:22:48.448Z,72.16
2023-05-14T03:23:09.558Z,72.17
2023-05-14T03:23:30.607Z,72.20
2023-05-14T03:23:51.686Z,72.23
2023-05-14T03:24:12.762Z,72.31
2023-05-14T03:24:33.790Z,72.35
2023-05-14T03:24:54.854Z,72.39
2023-05-14T03:25:15.902Z,72.36
2023-05-14T03:25:36.993Z,72.38
2023-05-14T03:25:58.272Z,72.32
2023-05-14T03:26:19.320Z,72.35
2023-05-14T03:26:40.385Z,72.36
2023-05-14T03:27:01.429Z,72.40
2023-05-14T03:27:22.498Z,72.38
2023-05-14T03:27:43.551Z,72.36
2023-05-14T03:28:04.611Z,72.42
2023-05-14T03:28:25.662Z,72.44
2023-05-14T03:28:46.727Z,72.45
2023-05-14T03:29:07.785Z,72.47
2023-05-14T03:29:28.834Z,72.42
2023-05-14T03:29:49.899Z,72.42
2023-05-14T03:30:10.957Z,72.32
2023-05-14T03:30:32.068Z,72.27
2023-05-14T03:30:53.195Z,72.28
2023-05-14T03:31:14.393Z,72.27
2023-05-14T03:31:35.426Z,72.26
2023-05-14T03:31:56.502Z,72.18
2023-05-14T03:32:17.541Z,72.25
2023-05-14T03:32:38.663Z,72.36
2023-05-14T03:32:59.813Z,72.40
2023-05-14T03:33:20.846Z,72.44
2023-05-14T03:33:41.920Z,72.38
2023-05-14T03:34:02.966Z,72.44
2023-05-14T03:34:24.029Z,72.50
2023-05-14T03:34:45.103Z,72.42
2023-05-14T03:35:06.155Z,72.43
2023-05-14T03:35:27.210Z,72.44
2023-05-14T03:35:48.265Z,72.47
2023-05-14T03:36:09.545Z,72.53
2023-05-14T03:36:30.646Z,72.57
2023-05-14T03:36:51.722Z,72.62
2023-05-14T03:37:12.762Z,72.57
2023-05-14T03:37:33.828Z,72.56
2023-05-14T03:37:54.879Z,72.58
2023-05-14T03:38:15.966Z,72.56
2023-05-14T03:38:36.995Z,72.56
2023-05-14T03:38:58.056Z,72.52
2023-05-14T03:39:19.127Z,72.52
2023-05-14T03:39:40.196Z,72.51
2023-05-14T03:40:01.229Z,72.47
2023-05-14T03:40:22.471Z,72.55
2023-05-14T03:40:43.590Z,72.55
2023-05-14T03:41:04.648Z,72.53
2023-05-14T03:41:25.734Z,72.57
2023-05-14T03:41:46.997Z,72.57
2023-05-14T03:42:08.055Z,72.57
2023-05-14T03:42:29.118Z,72.60
2023-05-14T03:42:50.187Z,72.57
2023-05-14T03:43:11.245Z,72.61
2023-05-14T03:43:32.298Z,72.58
2023-05-14T03:43:53.352Z,72.54
2023-05-14T03:44:14.410Z,72.53
2023-05-14T03:44:35.473Z,72.58
2023-05-14T03:44:56.530Z,72.51
2023-05-14T03:45:17.604Z,72.45
2023-05-14T03:45:38.640Z,72.51
2023-05-14T03:45:59.733Z,72.46
2023-05-14T03:46:20.788Z,72.49
2023-05-14T03:46:42.046Z,72.46
2023-05-14T03:47:03.354Z,72.52
2023-05-14T03:47:24.426Z,72.56
2023-05-14T03:47:45.496Z,72.60
2023-05-14T03:48:06.698Z,72.67
2023-05-14T03:48:27.973Z,72.70
2023-05-14T03:48:49.189Z,72.75
2023-05-14T03:49:10.381Z,72.75
2023-05-14T03:49:31.512Z,72.69
2023-05-14T03:49:52.569Z,72.63
2023-05-14T03:50:13.625Z,72.67
2023-05-14T03:50:34.680Z,72.63
2023-05-14T03:50:55.747Z,72.63
2023-05-14T03:51:16.837Z,72.65
2023-05-14T03:51:37.897Z,72.66
2023-05-14T03:51:58.969Z,72.71
2023-05-14T03:52:20.245Z,72.74
2023-05-14T03:52:41.319Z,72.75
2023-05-14T03:53:02.371Z,72.68
2023-05-14T03:53:23.427Z,72.76
2023-05-14T03:53:44.479Z,72.76
2023-05-14T03:54:05.544Z,72.78
2023-05-14T03:54:26.612Z,72.83
2023-05-14T03:54:47.653Z,72.90
2023-05-14T03:55:08.699Z,72.91
2023-05-14T03:55:29.759Z,72.91
2023-05-14T03:55:50.825Z,72.92
2023-05-14T03:56:11.876Z,72.85
2023-05-14T03:56:32.931Z,72.81
2023-05-14T03:56:54.000Z,72.84
2023-05-14T03:57:15.255Z,72.86
2023-05-14T03:57:36.349Z,72.82
2023-05-14T03:57:57.408Z,72.77
2023-05-14T03:58:18.469Z,72.81
2023-05-14T03:58:39.521Z,72.86
2023-05-14T03:59:00.596Z,72.92
2023-05-14T03:59:21.629Z,72.94
2023-05-14T03:59:42.698Z,72.87
2023-05-14T04:00:03.788Z,72.82
2023-05-14T04:00:25.304Z,72.81
2023-05-14T04:00:46.618Z,72.85
2023-05-14T04:01:07.671Z,72.90
2023-05-14T04:01:28.724Z,72.88
2023-05-14T04:01:49.786Z,72.87
2023-05-14T04:02:10.901Z,72.89
2023-05-14T04:02:32.051Z,72.93
2023-05-14T04:02:53.228Z,72.97
2023-05-14T04:03:14.347Z,72.97
2023-05-14T04:03:35.706Z,72.95
2023-05-14T04:03:57.118Z,72.86
2023-05-14T04:04:18.230Z,72.83
2023-05-14T04:04:39.323Z,72.83
2023-05-14T04:05:00.414Z,72.80
2023-05-14T04:05:21.440Z,72.79
2023-05-14T04:05:42.510Z,72.78
2023-05-14T04:06:03.563Z,72.78
2023-05-14T04:06:24.604Z,72.77
2023-05-14T04:06:45.679Z,72.86
2023-05-14T04:07:06.734Z,72.81
2023-05-14T04:07:27.790Z,72.84
2023-05-14T04:07:48.895Z,72.86
2023-05-14T04:08:09.974Z,72.85
2023-05-14T04:08:31.045Z,72.83
2023-05-14T04:08:52.087Z,72.81
2023-05-14T04:09:13.150Z,72.83
2023-05-14T04:09:34.205Z,72.85
2023-05-14T04:09:55.255Z,72.82
2023-05-14T04:10:16.309Z,72.84
2023-05-14T04:10:37.359Z,72.83
2023-05-14T04:10:58.436Z,72.83
2023-05-14T04:11:19.485Z,72.81
2023-05-14T04:11:40.544Z,72.77
2023-05-14T04:12:01.608Z,72.83
2023-05-14T04:12:22.659Z,72.80
2023-05-14T04:12:43.726Z,72.84
2023-05-14T04:13:04.977Z,72.84
2023-05-14T04:13:26.062Z,72.88
2023-05-14T04:13:47.126Z,72.88
2023-05-14T04:14:08.206Z,72.86
2023-05-14T04:14:29.243Z,72.89
2023-05-14T04:14:50.292Z,72.98
2023-05-14T04:15:11.385Z,72.94
2023-05-14T04:15:32.418Z,72.97
2023-05-14T04:15:53.497Z,73.00
2023-05-14T04:16:14.595Z,72.98
2023-05-14T04:16:35.639Z,73.01
2023-05-14T04:16:56.701Z,73.02
2023-05-14T04:17:17.791Z,73.02
2023-05-14T04:17:38.861Z,73.06
2023-05-14T04:17:59.946Z,73.07
2023-05-14T04:18:21.249Z,73.08
2023-05-14T04:18:42.377Z,73.03
2023-05-14T04:19:03.484Z,73.01
2023-05-14T04:19:24.507Z,73.04
2023-05-14T04:19:45.546Z,73.00
2023-05-14T04:20:06.620Z,73.03
2023-05-14T04:20:27.672Z,73.08
2023-05-14T04:20:48.725Z,73.03
2023-05-14T04:21:09.776Z,73.05
2023-05-14T04:21:30.832Z,73.00
2023-05-14T04:21:51.893Z,72.92
2023-05-14T04:22:12.957Z,72.94
2023-05-14T04:22:34.018Z,72.99
2023-05-14T04:22:55.073Z,72.95
2023-05-14T04:23:16.126Z,72.95
2023-05-14T04:23:37.245Z,72.98
2023-05-14T04:23:58.507Z,72.98
2023-05-14T04:24:19.564Z,73.12
2023-05-14T04:24:40.624Z,73.13
2023-05-14T04:25:01.683Z,73.20
2023-05-14T04:25:22.735Z,73.24
2023-05-14T04:25:43.799Z,73.26
2023-05-14T04:26:04.857Z,73.28
2023-05-14T04:26:25.913Z,73.22
2023-05-14T04:26:46.986Z,73.21
2023-05-14T04:27:08.058Z,73.28
2023-05-14T04:27:29.109Z,73.31
2023-05-14T04:27:50.181Z,73.34
2023-05-14T04:28:11.214Z,73.31
2023-05-14T04:28:32.268Z,73.33
2023-05-14T04:28:53.557Z,73.35
2023-05-14T04:29:14.823Z,73.38
2023-05-14T04:29:35.873Z,73.37
2023-05-14T04:29:56.938Z,73.34
2023-05-14T04:30:17.990Z,73.30
2023-05-14T04:30:39.050Z,73.32
2023-05-14T04:31:00.111Z,73.30
2023-05-14T04:31:21.219Z,73.34
2023-05-14T04:31:42.321Z,73.24